Freeport, Iowa
Current Conditions -  °F | °C
As of 8:15 AM on Sunday 25 Jan 2015 (Local Time) from KDEH Reporting Station
Overcast Overcast  
Wind Chill: 16°   Ceiling: 1200
Heat Index: 27°   Visibility: 10mi
Dew Point: 25°   Wind: 12mph
Humidity: 93%   Direction: 60°ENE
Pressure: 29.82"   Gusts: 17mph
Location:  43.3626°N, 91.8164°W
Report Text: KDEH 251415Z AUTO 06010G15KT 10SM BKN012 OVC044 M03/M04 A2982 RMK AO2
Loading
Personal Weather Stations






























Interactive Weather Map New forecast layout! Learn more

10-Day Weather Forecast

Advertisements
Track Severe Weather on mobile